sensor_id;sensor_type;location;lat;lon;timestamp;P1;durP1;ratioP1;P2;durP2;ratioP2
261;SDS011;114;48.260;10.988;2023-01-31T00:02:07;4.10;;;2.83;;
261;SDS011;114;48.260;10.988;2023-01-31T00:04:33;3.53;;;3.27;;
261;SDS011;114;48.260;10.988;2023-01-31T00:06:59;4.03;;;2.87;;
261;SDS011;114;48.260;10.988;2023-01-31T00:09:24;6.33;;;3.03;;
261;SDS011;114;48.260;10.988;2023-01-31T00:11:50;5.27;;;3.30;;
261;SDS011;114;48.260;10.988;2023-01-31T00:14:17;6.70;;;3.17;;
261;SDS011;114;48.260;10.988;2023-01-31T00:16:44;2.20;;;2.10;;
261;SDS011;114;48.260;10.988;2023-01-31T00:19:10;2.77;;;2.50;;
261;SDS011;114;48.260;10.988;2023-01-31T00:21:35;3.00;;;2.60;;
261;SDS011;114;48.260;10.988;2023-01-31T00:24:01;4.17;;;3.03;;
261;SDS011;114;48.260;10.988;2023-01-31T00:26:32;7.20;;;2.77;;
261;SDS011;114;48.260;10.988;2023-01-31T00:29:00;5.17;;;3.40;;
261;SDS011;114;48.260;10.988;2023-01-31T00:31:27;3.43;;;3.13;;
261;SDS011;114;48.260;10.988;2023-01-31T00:33:54;5.37;;;2.50;;
261;SDS011;114;48.260;10.988;2023-01-31T00:36:22;7.87;;;2.70;;
261;SDS011;114;48.260;10.988;2023-01-31T00:38:50;4.20;;;2.80;;
261;SDS011;114;48.260;10.988;2023-01-31T00:41:18;5.63;;;3.30;;
261;SDS011;114;48.260;10.988;2023-01-31T00:43:45;2.70;;;2.50;;
261;SDS011;114;48.260;10.988;2023-01-31T00:46:10;3.83;;;3.00;;
261;SDS011;114;48.260;10.988;2023-01-31T00:48:36;13.93;;;2.33;;
261;SDS011;114;48.260;10.988;2023-01-31T00:51:02;3.30;;;2.70;;
261;SDS011;114;48.260;10.988;2023-01-31T00:53:28;3.40;;;3.10;;
261;SDS011;114;48.260;10.988;2023-01-31T00:55:55;21.07;;;2.73;;
261;SDS011;114;48.260;10.988;2023-01-31T00:58:26;3.70;;;3.00;;
261;SDS011;114;48.260;10.988;2023-01-31T01:00:52;7.37;;;3.43;;
261;SDS011;114;48.260;10.988;2023-01-31T01:03:18;7.90;;;2.80;;
261;SDS011;114;48.260;10.988;2023-01-31T01:05:43;3.67;;;3.37;;
261;SDS011;114;48.260;10.988;2023-01-31T01:08:09;6.43;;;2.70;;
261;SDS011;114;48.260;10.988;2023-01-31T01:10:35;4.07;;;3.03;;
261;SDS011;114;48.260;10.988;2023-01-31T01:13:01;5.27;;;2.77;;
261;SDS011;114;48.260;10.988;2023-01-31T01:15:29;3.47;;;2.60;;
261;SDS011;114;48.260;10.988;2023-01-31T01:17:55;4.40;;;3.40;;
261;SDS011;114;48.260;10.988;2023-01-31T01:20:21;4.43;;;3.07;;
261;SDS011;114;48.260;10.988;2023-01-31T01:22:47;5.20;;;3.67;;
261;SDS011;114;48.260;10.988;2023-01-31T01:25:12;8.10;;;3.33;;
261;SDS011;114;48.260;10.988;2023-01-31T01:27:38;5.13;;;3.40;;
261;SDS011;114;48.260;10.988;2023-01-31T01:30:04;3.27;;;2.97;;
261;SDS011;114;48.260;10.988;2023-01-31T01:32:30;11.40;;;2.90;;
261;SDS011;114;48.260;10.988;2023-01-31T01:34:56;5.17;;;3.23;;
261;SDS011;114;48.260;10.988;2023-01-31T01:37:22;4.00;;;3.70;;
261;SDS011;114;48.260;10.988;2023-01-31T01:39:48;6.23;;;3.90;;
261;SDS011;114;48.260;10.988;2023-01-31T01:42:16;9.77;;;4.00;;
261;SDS011;114;48.260;10.988;2023-01-31T01:44:45;3.40;;;3.20;;
261;SDS011;114;48.260;10.988;2023-01-31T01:50:37;3.67;;;3.47;;
261;SDS011;114;48.260;10.988;2023-01-31T01:53:15;6.67;;;5.00;;
261;SDS011;114;48.260;10.988;2023-01-31T01:55:54;3.07;;;2.83;;
261;SDS011;114;48.260;10.988;2023-01-31T01:58:41;12.93;;;4.50;;
261;SDS011;114;48.260;10.988;2023-01-31T02:01:32;4.10;;;2.73;;
261;SDS011;114;48.260;10.988;2023-01-31T02:04:01;16.20;;;4.70;;
261;SDS011;114;48.260;10.988;2023-01-31T02:06:29;3.80;;;3.50;;
261;SDS011;114;48.260;10.988;2023-01-31T02:08:55;8.90;;;5.20;;
261;SDS011;114;48.260;10.988;2023-01-31T02:11:23;3.93;;;3.63;;
261;SDS011;114;48.260;10.988;2023-01-31T02:14:00;5.00;;;3.60;;
261;SDS011;114;48.260;10.988;2023-01-31T02:16:32;6.33;;;4.47;;
261;SDS011;114;48.260;10.988;2023-01-31T02:18:58;6.40;;;3.57;;
261;SDS011;114;48.260;10.988;2023-01-31T02:30:23;4.80;;;4.27;;
261;SDS011;114;48.260;10.988;2023-01-31T02:33:13;8.23;;;4.17;;
261;SDS011;114;48.260;10.988;2023-01-31T02:41:19;5.07;;;4.50;;
261;SDS011;114;48.260;10.988;2023-01-31T02:46:55;5.80;;;4.30;;
261;SDS011;114;48.260;10.988;2023-01-31T02:50:08;4.30;;;3.90;;
261;SDS011;114;48.260;10.988;2023-01-31T02:58:11;5.50;;;4.30;;
261;SDS011;114;48.260;10.988;2023-01-31T03:00:40;8.00;;;3.27;;
261;SDS011;114;48.260;10.988;2023-01-31T03:03:17;7.27;;;4.00;;
261;SDS011;114;48.260;10.988;2023-01-31T03:08:36;7.00;;;4.17;;
261;SDS011;114;48.260;10.988;2023-01-31T03:11:04;8.83;;;3.50;;
261;SDS011;114;48.260;10.988;2023-01-31T03:16:23;8.47;;;4.83;;
261;SDS011;114;48.260;10.988;2023-01-31T03:19:15;4.27;;;3.57;;
261;SDS011;114;48.260;10.988;2023-01-31T03:21:56;10.43;;;3.60;;
261;SDS011;114;48.260;10.988;2023-01-31T03:24:27;5.37;;;3.10;;
261;SDS011;114;48.260;10.988;2023-01-31T03:26:55;2.93;;;2.50;;
261;SDS011;114;48.260;10.988;2023-01-31T03:29:23;5.30;;;4.03;;
261;SDS011;114;48.260;10.988;2023-01-31T03:32:37;12.03;;;4.37;;
261;SDS011;114;48.260;10.988;2023-01-31T03:34:49;6.13;;;4.10;;
261;SDS011;114;48.260;10.988;2023-01-31T03:40:03;7.20;;;4.63;;
261;SDS011;114;48.260;10.988;2023-01-31T03:42:50;7.50;;;4.03;;
261;SDS011;114;48.260;10.988;2023-01-31T03:45:36;7.10;;;5.20;;
261;SDS011;114;48.260;10.988;2023-01-31T03:48:10;7.40;;;4.40;;
261;SDS011;114;48.260;10.988;2023-01-31T03:51:03;9.17;;;4.40;;
261;SDS011;114;48.260;10.988;2023-01-31T03:53:34;6.20;;;4.20;;
261;SDS011;114;48.260;10.988;2023-01-31T03:58:37;4.83;;;3.70;;
261;SDS011;114;48.260;10.988;2023-01-31T04:01:15;5.50;;;4.43;;
261;SDS011;114;48.260;10.988;2023-01-31T04:04:03;8.07;;;5.00;;
261;SDS011;114;48.260;10.988;2023-01-31T04:06:34;6.37;;;4.80;;
261;SDS011;114;48.260;10.988;2023-01-31T04:09:00;10.67;;;4.47;;
261;SDS011;114;48.260;10.988;2023-01-31T04:11:26;12.47;;;5.03;;
261;SDS011;114;48.260;10.988;2023-01-31T04:13:52;4.27;;;3.80;;
261;SDS011;114;48.260;10.988;2023-01-31T04:16:18;6.50;;;5.27;;
261;SDS011;114;48.260;10.988;2023-01-31T04:18:44;7.77;;;4.03;;
261;SDS011;114;48.260;10.988;2023-01-31T04:21:10;4.53;;;4.13;;
261;SDS011;114;48.260;10.988;2023-01-31T04:23:37;7.07;;;5.00;;
261;SDS011;114;48.260;10.988;2023-01-31T04:26:03;10.97;;;5.00;;
261;SDS011;114;48.260;10.988;2023-01-31T04:28:29;11.27;;;4.30;;
261;SDS011;114;48.260;10.988;2023-01-31T04:30:55;7.73;;;5.53;;
261;SDS011;114;48.260;10.988;2023-01-31T04:33:21;5.47;;;4.67;;
261;SDS011;114;48.260;10.988;2023-01-31T04:35:49;5.63;;;4.37;;
261;SDS011;114;48.260;10.988;2023-01-31T04:38:15;6.73;;;5.20;;
261;SDS011;114;48.260;10.988;2023-01-31T04:40:41;5.10;;;4.70;;
261;SDS011;114;48.260;10.988;2023-01-31T04:43:07;11.63;;;5.20;;
261;SDS011;114;48.260;10.988;2023-01-31T04:45:32;7.53;;;5.10;;
261;SDS011;114;48.260;10.988;2023-01-31T04:47:58;8.07;;;4.93;;
261;SDS011;114;48.260;10.988;2023-01-31T04:50:24;8.93;;;4.47;;
261;SDS011;114;48.260;10.988;2023-01-31T04:52:50;8.00;;;4.73;;
261;SDS011;114;48.260;10.988;2023-01-31T04:55:16;7.90;;;4.67;;
261;SDS011;114;48.260;10.988;2023-01-31T04:57:43;8.53;;;5.57;;
261;SDS011;114;48.260;10.988;2023-01-31T05:00:09;9.47;;;5.17;;
261;SDS011;114;48.260;10.988;2023-01-31T05:02:35;3.90;;;3.43;;
261;SDS011;114;48.260;10.988;2023-01-31T05:05:01;13.80;;;5.53;;
261;SDS011;114;48.260;10.988;2023-01-31T05:07:27;9.63;;;4.50;;
261;SDS011;114;48.260;10.988;2023-01-31T05:09:53;10.20;;;5.20;;
261;SDS011;114;48.260;10.988;2023-01-31T05:12:18;5.00;;;4.47;;
261;SDS011;114;48.260;10.988;2023-01-31T05:14:44;5.97;;;4.83;;
261;SDS011;114;48.260;10.988;2023-01-31T05:17:10;9.80;;;5.20;;
261;SDS011;114;48.260;10.988;2023-01-31T05:19:36;5.13;;;4.73;;
261;SDS011;114;48.260;10.988;2023-01-31T05:22:02;5.43;;;4.60;;
261;SDS011;114;48.260;10.988;2023-01-31T05:24:28;9.27;;;5.13;;
261;SDS011;114;48.260;10.988;2023-01-31T05:26:57;5.67;;;5.00;;
261;SDS011;114;48.260;10.988;2023-01-31T05:29:25;5.57;;;5.07;;
261;SDS011;114;48.260;10.988;2023-01-31T05:31:56;7.80;;;5.20;;
261;SDS011;114;48.260;10.988;2023-01-31T05:34:23;6.87;;;4.73;;
261;SDS011;114;48.260;10.988;2023-01-31T05:36:53;6.40;;;4.73;;
261;SDS011;114;48.260;10.988;2023-01-31T05:39:19;7.90;;;4.87;;
261;SDS011;114;48.260;10.988;2023-01-31T05:41:45;6.43;;;5.23;;
261;SDS011;114;48.260;10.988;2023-01-31T05:44:11;8.50;;;5.00;;
261;SDS011;114;48.260;10.988;2023-01-31T05:46:38;11.00;;;5.30;;
261;SDS011;114;48.260;10.988;2023-01-31T05:49:04;9.47;;;5.00;;
261;SDS011;114;48.260;10.988;2023-01-31T05:51:30;7.70;;;5.50;;
261;SDS011;114;48.260;10.988;2023-01-31T05:53:56;9.03;;;5.27;;
261;SDS011;114;48.260;10.988;2023-01-31T05:56:21;9.57;;;5.27;;
261;SDS011;114;48.260;10.988;2023-01-31T05:58:48;7.87;;;5.97;;
261;SDS011;114;48.260;10.988;2023-01-31T06:01:18;8.43;;;5.07;;
261;SDS011;114;48.260;10.988;2023-01-31T06:03:45;9.93;;;5.60;;
261;SDS011;114;48.260;10.988;2023-01-31T06:06:11;9.00;;;5.40;;
261;SDS011;114;48.260;10.988;2023-01-31T06:08:37;7.60;;;4.37;;
261;SDS011;114;48.260;10.988;2023-01-31T06:11:03;6.43;;;5.20;;
261;SDS011;114;48.260;10.988;2023-01-31T06:13:30;8.60;;;4.00;;
261;SDS011;114;48.260;10.988;2023-01-31T06:15:56;9.50;;;5.53;;
261;SDS011;114;48.260;10.988;2023-01-31T06:18:22;17.07;;;6.73;;
261;SDS011;114;48.260;10.988;2023-01-31T06:20:48;7.33;;;4.67;;
261;SDS011;114;48.260;10.988;2023-01-31T06:23:13;7.23;;;4.43;;
261;SDS011;114;48.260;10.988;2023-01-31T06:25:39;5.37;;;3.83;;
261;SDS011;114;48.260;10.988;2023-01-31T06:28:05;12.27;;;4.43;;
261;SDS011;114;48.260;10.988;2023-01-31T06:30:31;5.00;;;4.00;;
261;SDS011;114;48.260;10.988;2023-01-31T06:33:00;6.80;;;4.57;;
261;SDS011;114;48.260;10.988;2023-01-31T06:35:26;7.13;;;4.50;;
261;SDS011;114;48.260;10.988;2023-01-31T06:37:53;8.70;;;3.93;;
261;SDS011;114;48.260;10.988;2023-01-31T06:40:19;7.93;;;4.10;;
261;SDS011;114;48.260;10.988;2023-01-31T06:42:45;5.57;;;4.40;;
261;SDS011;114;48.260;10.988;2023-01-31T06:45:11;7.33;;;4.10;;
261;SDS011;114;48.260;10.988;2023-01-31T06:47:37;8.70;;;5.03;;
261;SDS011;114;48.260;10.988;2023-01-31T06:50:02;8.43;;;5.10;;
261;SDS011;114;48.260;10.988;2023-01-31T06:52:28;8.13;;;5.27;;
261;SDS011;114;48.260;10.988;2023-01-31T06:54:54;8.03;;;4.90;;
261;SDS011;114;48.260;10.988;2023-01-31T06:57:20;7.77;;;5.37;;
261;SDS011;114;48.260;10.988;2023-01-31T06:59:45;7.03;;;4.53;;
261;SDS011;114;48.260;10.988;2023-01-31T07:02:11;6.07;;;5.57;;
261;SDS011;114;48.260;10.988;2023-01-31T07:04:37;9.80;;;5.90;;
261;SDS011;114;48.260;10.988;2023-01-31T07:07:03;10.87;;;5.03;;
261;SDS011;114;48.260;10.988;2023-01-31T07:09:28;6.83;;;4.93;;
261;SDS011;114;48.260;10.988;2023-01-31T07:11:54;10.13;;;5.80;;
261;SDS011;114;48.260;10.988;2023-01-31T07:14:20;8.23;;;4.67;;
261;SDS011;114;48.260;10.988;2023-01-31T07:16:46;6.50;;;4.43;;
261;SDS011;114;48.260;10.988;2023-01-31T07:19:11;9.77;;;5.53;;
261;SDS011;114;48.260;10.988;2023-01-31T07:21:37;7.87;;;5.17;;
261;SDS011;114;48.260;10.988;2023-01-31T07:24:03;4.80;;;4.33;;
261;SDS011;114;48.260;10.988;2023-01-31T07:26:29;5.20;;;4.10;;
261;SDS011;114;48.260;10.988;2023-01-31T07:28:55;7.60;;;4.90;;
261;SDS011;114;48.260;10.988;2023-01-31T07:31:20;6.63;;;4.80;;
261;SDS011;114;48.260;10.988;2023-01-31T07:33:46;10.83;;;5.07;;
261;SDS011;114;48.260;10.988;2023-01-31T07:36:13;5.47;;;4.80;;
261;SDS011;114;48.260;10.988;2023-01-31T07:38:40;12.90;;;4.80;;
261;SDS011;114;48.260;10.988;2023-01-31T07:41:06;7.20;;;4.67;;
261;SDS011;114;48.260;10.988;2023-01-31T07:43:34;6.30;;;4.20;;
261;SDS011;114;48.260;10.988;2023-01-31T07:46:00;6.93;;;3.83;;
261;SDS011;114;48.260;10.988;2023-01-31T07:48:26;4.97;;;4.53;;
261;SDS011;114;48.260;10.988;2023-01-31T07:50:52;15.93;;;4.37;;
261;SDS011;114;48.260;10.988;2023-01-31T07:53:28;8.70;;;4.57;;
261;SDS011;114;48.260;10.988;2023-01-31T07:55:55;8.60;;;5.17;;
261;SDS011;114;48.260;10.988;2023-01-31T07:58:39;15.70;;;4.60;;
261;SDS011;114;48.260;10.988;2023-01-31T08:01:08;8.63;;;4.33;;
261;SDS011;114;48.260;10.988;2023-01-31T08:03:57;9.13;;;4.30;;
261;SDS011;114;48.260;10.988;2023-01-31T08:06:23;7.83;;;4.10;;
261;SDS011;114;48.260;10.988;2023-01-31T08:08:48;4.83;;;4.00;;
261;SDS011;114;48.260;10.988;2023-01-31T08:11:14;11.27;;;4.30;;
261;SDS011;114;48.260;10.988;2023-01-31T08:13:40;4.57;;;3.40;;
261;SDS011;114;48.260;10.988;2023-01-31T08:16:06;4.40;;;3.40;;
261;SDS011;114;48.260;10.988;2023-01-31T08:18:34;11.93;;;3.83;;
261;SDS011;114;48.260;10.988;2023-01-31T08:21:00;6.27;;;3.50;;
261;SDS011;114;48.260;10.988;2023-01-31T08:23:26;5.40;;;3.43;;
261;SDS011;114;48.260;10.988;2023-01-31T08:25:58;29.73;;;5.37;;
261;SDS011;114;48.260;10.988;2023-01-31T08:28:35;9.80;;;4.97;;
261;SDS011;114;48.260;10.988;2023-01-31T08:31:02;6.10;;;3.83;;
261;SDS011;114;48.260;10.988;2023-01-31T08:33:28;6.17;;;4.40;;
261;SDS011;114;48.260;10.988;2023-01-31T08:35:54;8.77;;;4.40;;
261;SDS011;114;48.260;10.988;2023-01-31T08:38:20;9.97;;;3.97;;
261;SDS011;114;48.260;10.988;2023-01-31T08:40:46;15.47;;;3.50;;
261;SDS011;114;48.260;10.988;2023-01-31T08:43:12;6.47;;;3.70;;
261;SDS011;114;48.260;10.988;2023-01-31T08:45:38;9.50;;;4.10;;
261;SDS011;114;48.260;10.988;2023-01-31T08:48:04;6.07;;;3.93;;
261;SDS011;114;48.260;10.988;2023-01-31T08:50:30;4.60;;;3.73;;
261;SDS011;114;48.260;10.988;2023-01-31T08:52:57;7.00;;;3.23;;
261;SDS011;114;48.260;10.988;2023-01-31T08:55:26;8.90;;;4.70;;
261;SDS011;114;48.260;10.988;2023-01-31T08:57:53;7.33;;;3.83;;
261;SDS011;114;48.260;10.988;2023-01-31T09:00:19;7.37;;;4.33;;
261;SDS011;114;48.260;10.988;2023-01-31T09:02:55;4.93;;;3.00;;
261;SDS011;114;48.260;10.988;2023-01-31T09:05:24;5.53;;;3.40;;
261;SDS011;114;48.260;10.988;2023-01-31T09:07:51;17.97;;;4.10;;
261;SDS011;114;48.260;10.988;2023-01-31T09:10:17;5.90;;;3.10;;
261;SDS011;114;48.260;10.988;2023-01-31T09:12:44;5.30;;;4.00;;
261;SDS011;114;48.260;10.988;2023-01-31T09:15:10;4.73;;;3.00;;
261;SDS011;114;48.260;10.988;2023-01-31T09:17:36;8.77;;;3.37;;
261;SDS011;114;48.260;10.988;2023-01-31T09:20:03;5.20;;;4.03;;
261;SDS011;114;48.260;10.988;2023-01-31T09:22:31;6.60;;;3.00;;
261;SDS011;114;48.260;10.988;2023-01-31T09:24:58;19.13;;;3.53;;
261;SDS011;114;48.260;10.988;2023-01-31T09:27:24;6.43;;;2.60;;
261;SDS011;114;48.260;10.988;2023-01-31T09:29:50;6.30;;;3.10;;
261;SDS011;114;48.260;10.988;2023-01-31T09:32:16;5.20;;;2.90;;
261;SDS011;114;48.260;10.988;2023-01-31T09:34:42;6.90;;;3.10;;
261;SDS011;114;48.260;10.988;2023-01-31T09:37:07;8.60;;;3.00;;
261;SDS011;114;48.260;10.988;2023-01-31T09:39:33;9.90;;;4.20;;
261;SDS011;114;48.260;10.988;2023-01-31T09:42:21;6.83;;;4.30;;
261;SDS011;114;48.260;10.988;2023-01-31T09:44:46;11.07;;;2.93;;
261;SDS011;114;48.260;10.988;2023-01-31T09:47:21;11.40;;;3.60;;
261;SDS011;114;48.260;10.988;2023-01-31T09:52:46;8.13;;;4.70;;
261;SDS011;114;48.260;10.988;2023-01-31T09:55:16;5.73;;;2.10;;
261;SDS011;114;48.260;10.988;2023-01-31T09:57:50;3.87;;;2.23;;
261;SDS011;114;48.260;10.988;2023-01-31T10:00:29;9.30;;;2.43;;
261;SDS011;114;48.260;10.988;2023-01-31T10:03:25;4.40;;;3.00;;
261;SDS011;114;48.260;10.988;2023-01-31T10:11:33;8.03;;;3.50;;
261;SDS011;114;48.260;10.988;2023-01-31T10:14:12;11.17;;;3.50;;
261;SDS011;114;48.260;10.988;2023-01-31T10:17:04;5.10;;;3.67;;
261;SDS011;114;48.260;10.988;2023-01-31T10:22:31;4.43;;;2.87;;
261;SDS011;114;48.260;10.988;2023-01-31T10:25:23;7.30;;;2.80;;
261;SDS011;114;48.260;10.988;2023-01-31T10:28:20;18.43;;;3.90;;
261;SDS011;114;48.260;10.988;2023-01-31T10:30:49;4.10;;;2.73;;
261;SDS011;114;48.260;10.988;2023-01-31T10:39:35;8.33;;;3.17;;
261;SDS011;114;48.260;10.988;2023-01-31T10:41:50;11.23;;;2.63;;
261;SDS011;114;48.260;10.988;2023-01-31T10:47:13;5.10;;;2.37;;
261;SDS011;114;48.260;10.988;2023-01-31T10:49:47;6.57;;;2.30;;
261;SDS011;114;48.260;10.988;2023-01-31T10:55:08;5.07;;;1.50;;
261;SDS011;114;48.260;10.988;2023-01-31T10:57:59;6.13;;;2.00;;
261;SDS011;114;48.260;10.988;2023-01-31T11:00:26;7.03;;;2.40;;
261;SDS011;114;48.260;10.988;2023-01-31T11:02:55;5.43;;;1.97;;
261;SDS011;114;48.260;10.988;2023-01-31T11:05:22;3.50;;;1.60;;
261;SDS011;114;48.260;10.988;2023-01-31T11:07:51;8.97;;;2.20;;
261;SDS011;114;48.260;10.988;2023-01-31T11:10:22;2.73;;;1.73;;
261;SDS011;114;48.260;10.988;2023-01-31T11:12:53;5.70;;;2.20;;
261;SDS011;114;48.260;10.988;2023-01-31T11:15:26;4.80;;;2.07;;
261;SDS011;114;48.260;10.988;2023-01-31T11:17:56;6.73;;;2.13;;
261;SDS011;114;48.260;10.988;2023-01-31T11:20:29;7.60;;;3.87;;
261;SDS011;114;48.260;10.988;2023-01-31T11:22:58;4.33;;;1.70;;
261;SDS011;114;48.260;10.988;2023-01-31T11:25:25;7.87;;;2.20;;
261;SDS011;114;48.260;10.988;2023-01-31T11:27:58;17.00;;;2.10;;
261;SDS011;114;48.260;10.988;2023-01-31T11:30:33;12.90;;;2.27;;
261;SDS011;114;48.260;10.988;2023-01-31T11:33:04;4.73;;;2.27;;
261;SDS011;114;48.260;10.988;2023-01-31T11:35:31;5.97;;;2.40;;
261;SDS011;114;48.260;10.988;2023-01-31T11:38:02;2.73;;;2.17;;
261;SDS011;114;48.260;10.988;2023-01-31T11:40:48;6.13;;;2.70;;
261;SDS011;114;48.260;10.988;2023-01-31T11:45:51;3.00;;;2.70;;
261;SDS011;114;48.260;10.988;2023-01-31T11:48:21;11.53;;;3.10;;
261;SDS011;114;48.260;10.988;2023-01-31T11:53:20;11.27;;;2.87;;
261;SDS011;114;48.260;10.988;2023-01-31T11:55:57;5.00;;;2.70;;
261;SDS011;114;48.260;10.988;2023-01-31T11:58:39;10.23;;;2.90;;
261;SDS011;114;48.260;10.988;2023-01-31T12:03:47;5.43;;;2.70;;
261;SDS011;114;48.260;10.988;2023-01-31T12:06:27;3.33;;;2.50;;
261;SDS011;114;48.260;10.988;2023-01-31T12:08:55;8.37;;;2.53;;
261;SDS011;114;48.260;10.988;2023-01-31T12:11:30;11.30;;;2.40;;
261;SDS011;114;48.260;10.988;2023-01-31T12:16:40;7.70;;;2.20;;
261;SDS011;114;48.260;10.988;2023-01-31T12:24:34;5.20;;;4.47;;
261;SDS011;114;48.260;10.988;2023-01-31T12:35:31;4.40;;;2.40;;
261;SDS011;114;48.260;10.988;2023-01-31T12:41:14;2.43;;;2.13;;
261;SDS011;114;48.260;10.988;2023-01-31T12:46:44;5.10;;;3.07;;
261;SDS011;114;48.260;10.988;2023-01-31T12:55:36;3.97;;;2.73;;
261;SDS011;114;48.260;10.988;2023-01-31T12:58:41;3.90;;;2.80;;
261;SDS011;114;48.260;10.988;2023-01-31T13:01:36;3.17;;;2.97;;
261;SDS011;114;48.260;10.988;2023-01-31T13:06:50;3.97;;;3.30;;
261;SDS011;114;48.260;10.988;2023-01-31T13:09:22;3.23;;;2.63;;
261;SDS011;114;48.260;10.988;2023-01-31T13:14:39;3.33;;;2.90;;
261;SDS011;114;48.260;10.988;2023-01-31T13:17:12;2.87;;;2.67;;
261;SDS011;114;48.260;10.988;2023-01-31T13:22:26;3.50;;;3.17;;
261;SDS011;114;48.260;10.988;2023-01-31T13:28:29;4.27;;;3.83;;
261;SDS011;114;48.260;10.988;2023-01-31T13:33:22;3.03;;;2.83;;
261;SDS011;114;48.260;10.988;2023-01-31T13:35:56;7.03;;;4.30;;
261;SDS011;114;48.260;10.988;2023-01-31T13:38:33;6.63;;;4.00;;
261;SDS011;114;48.260;10.988;2023-01-31T13:41:03;5.43;;;5.00;;
261;SDS011;114;48.260;10.988;2023-01-31T13:43:31;9.87;;;4.57;;
261;SDS011;114;48.260;10.988;2023-01-31T13:46:02;3.07;;;2.80;;
261;SDS011;114;48.260;10.988;2023-01-31T13:53:47;10.40;;;5.33;;
261;SDS011;114;48.260;10.988;2023-01-31T13:56:22;3.40;;;3.20;;
261;SDS011;114;48.260;10.988;2023-01-31T13:58:53;8.10;;;4.00;;
261;SDS011;114;48.260;10.988;2023-01-31T14:01:23;6.50;;;4.00;;
261;SDS011;114;48.260;10.988;2023-01-31T14:09:26;3.50;;;3.20;;
261;SDS011;114;48.260;10.988;2023-01-31T14:22:18;4.50;;;2.90;;
261;SDS011;114;48.260;10.988;2023-01-31T14:24:56;4.37;;;3.63;;
261;SDS011;114;48.260;10.988;2023-01-31T14:37:54;5.27;;;3.60;;
261;SDS011;114;48.260;10.988;2023-01-31T14:43:38;7.00;;;3.00;;
261;SDS011;114;48.260;10.988;2023-01-31T14:48:53;5.60;;;3.60;;
261;SDS011;114;48.260;10.988;2023-01-31T14:57:31;4.03;;;3.73;;
261;SDS011;114;48.260;10.988;2023-01-31T15:00:04;4.30;;;3.60;;
261;SDS011;114;48.260;10.988;2023-01-31T15:05:20;5.10;;;3.83;;
261;SDS011;114;48.260;10.988;2023-01-31T15:10:53;7.77;;;3.50;;
261;SDS011;114;48.260;10.988;2023-01-31T15:13:44;8.00;;;4.00;;
261;SDS011;114;48.260;10.988;2023-01-31T15:16:34;5.70;;;4.10;;
261;SDS011;114;48.260;10.988;2023-01-31T15:21:45;9.33;;;4.03;;
261;SDS011;114;48.260;10.988;2023-01-31T15:24:19;4.20;;;3.80;;
261;SDS011;114;48.260;10.988;2023-01-31T15:27:03;10.40;;;4.20;;
261;SDS011;114;48.260;10.988;2023-01-31T15:29:42;5.67;;;3.60;;
261;SDS011;114;48.260;10.988;2023-01-31T15:32:21;7.93;;;4.10;;
261;SDS011;114;48.260;10.988;2023-01-31T15:35:05;5.30;;;4.33;;
261;SDS011;114;48.260;10.988;2023-01-31T15:37:38;4.73;;;3.33;;
261;SDS011;114;48.260;10.988;2023-01-31T15:40:11;3.60;;;3.17;;
261;SDS011;114;48.260;10.988;2023-01-31T15:42:42;6.30;;;4.37;;
261;SDS011;114;48.260;10.988;2023-01-31T15:47:43;3.80;;;2.80;;
261;SDS011;114;48.260;10.988;2023-01-31T15:50:27;3.97;;;3.53;;
261;SDS011;114;48.260;10.988;2023-01-31T15:52:55;4.87;;;4.07;;
261;SDS011;114;48.260;10.988;2023-01-31T15:55:25;8.23;;;4.13;;
261;SDS011;114;48.260;10.988;2023-01-31T15:57:52;4.67;;;4.20;;
261;SDS011;114;48.260;10.988;2023-01-31T16:00:29;4.30;;;3.50;;
261;SDS011;114;48.260;10.988;2023-01-31T16:02:57;4.53;;;3.80;;
261;SDS011;114;48.260;10.988;2023-01-31T16:06:12;6.07;;;5.03;;
261;SDS011;114;48.260;10.988;2023-01-31T16:08:35;3.53;;;3.33;;
261;SDS011;114;48.260;10.988;2023-01-31T16:11:08;7.47;;;4.80;;
261;SDS011;114;48.260;10.988;2023-01-31T16:13:35;7.53;;;5.90;;
261;SDS011;114;48.260;10.988;2023-01-31T16:16:04;3.33;;;3.13;;
261;SDS011;114;48.260;10.988;2023-01-31T16:18:31;6.77;;;4.87;;
261;SDS011;114;48.260;10.988;2023-01-31T16:21:10;6.23;;;5.70;;
261;SDS011;114;48.260;10.988;2023-01-31T16:23:55;4.67;;;4.23;;
261;SDS011;114;48.260;10.988;2023-01-31T16:26:23;6.70;;;4.07;;
261;SDS011;114;48.260;10.988;2023-01-31T16:28:58;4.70;;;4.20;;
261;SDS011;114;48.260;10.988;2023-01-31T16:31:28;7.17;;;5.10;;
261;SDS011;114;48.260;10.988;2023-01-31T16:33:58;4.77;;;4.00;;
261;SDS011;114;48.260;10.988;2023-01-31T16:36:30;7.60;;;5.60;;
261;SDS011;114;48.260;10.988;2023-01-31T16:39:02;6.83;;;4.13;;
261;SDS011;114;48.260;10.988;2023-01-31T16:41:43;6.50;;;4.93;;
261;SDS011;114;48.260;10.988;2023-01-31T16:44:19;6.10;;;5.07;;
261;SDS011;114;48.260;10.988;2023-01-31T16:46:50;6.23;;;5.63;;
261;SDS011;114;48.260;10.988;2023-01-31T16:49:21;6.00;;;5.40;;
261;SDS011;114;48.260;10.988;2023-01-31T16:51:48;6.50;;;4.80;;
261;SDS011;114;48.260;10.988;2023-01-31T17:02:18;4.53;;;4.13;;
261;SDS011;114;48.260;10.988;2023-01-31T17:04:45;6.03;;;5.17;;
261;SDS011;114;48.260;10.988;2023-01-31T17:09:54;5.50;;;4.93;;
261;SDS011;114;48.260;10.988;2023-01-31T17:12:28;9.70;;;5.70;;
261;SDS011;114;48.260;10.988;2023-01-31T17:14:59;4.23;;;3.90;;
261;SDS011;114;48.260;10.988;2023-01-31T17:17:32;7.27;;;4.80;;
261;SDS011;114;48.260;10.988;2023-01-31T17:20:01;5.83;;;5.27;;
261;SDS011;114;48.260;10.988;2023-01-31T17:22:27;11.10;;;5.30;;
261;SDS011;114;48.260;10.988;2023-01-31T17:24:52;8.90;;;6.00;;
261;SDS011;114;48.260;10.988;2023-01-31T17:27:18;8.80;;;6.07;;
261;SDS011;114;48.260;10.988;2023-01-31T17:29:45;12.00;;;6.90;;
261;SDS011;114;48.260;10.988;2023-01-31T17:32:12;8.77;;;6.10;;
261;SDS011;114;48.260;10.988;2023-01-31T17:34:45;10.20;;;6.50;;
261;SDS011;114;48.260;10.988;2023-01-31T17:37:12;11.23;;;5.87;;
261;SDS011;114;48.260;10.988;2023-01-31T17:39:41;6.97;;;5.10;;
261;SDS011;114;48.260;10.988;2023-01-31T17:42:17;8.63;;;6.00;;
261;SDS011;114;48.260;10.988;2023-01-31T17:44:44;9.27;;;5.23;;
261;SDS011;114;48.260;10.988;2023-01-31T17:47:10;10.43;;;6.40;;
261;SDS011;114;48.260;10.988;2023-01-31T17:49:39;5.17;;;4.20;;
261;SDS011;114;48.260;10.988;2023-01-31T17:52:05;4.37;;;3.97;;
261;SDS011;114;48.260;10.988;2023-01-31T17:54:30;6.10;;;3.60;;
261;SDS011;114;48.260;10.988;2023-01-31T17:56:56;8.93;;;3.70;;
261;SDS011;114;48.260;10.988;2023-01-31T17:59:22;4.57;;;3.80;;
261;SDS011;114;48.260;10.988;2023-01-31T18:01:48;5.93;;;3.60;;
261;SDS011;114;48.260;10.988;2023-01-31T18:04:13;6.47;;;3.60;;
261;SDS011;114;48.260;10.988;2023-01-31T18:06:39;3.10;;;2.80;;
261;SDS011;114;48.260;10.988;2023-01-31T18:09:05;4.10;;;3.70;;
261;SDS011;114;48.260;10.988;2023-01-31T18:11:34;4.67;;;3.50;;
261;SDS011;114;48.260;10.988;2023-01-31T18:14:00;4.70;;;3.63;;
261;SDS011;114;48.260;10.988;2023-01-31T18:16:27;3.83;;;3.47;;
261;SDS011;114;48.260;10.988;2023-01-31T18:18:53;3.90;;;2.70;;
261;SDS011;114;48.260;10.988;2023-01-31T18:21:20;4.30;;;2.70;;
261;SDS011;114;48.260;10.988;2023-01-31T18:23:48;2.80;;;2.27;;
261;SDS011;114;48.260;10.988;2023-01-31T18:26:15;5.47;;;3.00;;
261;SDS011;114;48.260;10.988;2023-01-31T18:28:42;10.67;;;4.40;;
261;SDS011;114;48.260;10.988;2023-01-31T18:31:08;5.17;;;3.40;;
261;SDS011;114;48.260;10.988;2023-01-31T18:33:37;5.63;;;3.33;;
261;SDS011;114;48.260;10.988;2023-01-31T18:36:04;5.13;;;3.43;;
261;SDS011;114;48.260;10.988;2023-01-31T18:38:30;6.70;;;3.00;;
261;SDS011;114;48.260;10.988;2023-01-31T18:40:57;3.70;;;2.60;;
261;SDS011;114;48.260;10.988;2023-01-31T18:43:24;4.83;;;3.37;;